Time;durP1;ratioP1;P1;durP2;ratioP2;P2;SDS_P1;SDS_P2;PMS_P1;PMS_P2;Temp;Humidity;BMP_temperature;BMP_pressure;BME280_temperature;BME280_humidity;BME280_pressure;Samples;Min_cycle;Max_cycle;Signal;HPM_P1;HPM_P2
2022/08/02 00:00:26;;;;;;;2.22;1.42;;;;;;;27.57;33.51;99151.75;5035086;28;20032;-74
2022/08/02 00:02:52;;;;;;;1.70;1.58;;;;;;;27.48;33.48;99134.53;5035076;28;20025;-75
2022/08/02 00:05:17;;;;;;;1.67;1.25;;;;;;;27.61;33.58;99152.78;5035042;28;20033;-74
2022/08/02 00:07:43;;;;;;;2.15;1.50;;;;;;;27.54;33.60;99144.22;5035023;28;20074;-74
2022/08/02 00:10:10;;;;;;;1.70;1.50;;;;;;;27.19;33.40;99091.41;5034875;28;20417;-74
2022/08/02 00:12:37;;;;;;;1.45;1.35;;;;;;;27.53;33.48;99150.75;5034989;28;20044;-74
2022/08/02 00:15:04;;;;;;;2.10;1.50;;;;;;;27.58;33.56;99164.22;5034919;28;20395;-74
2022/08/02 00:17:29;;;;;;;1.67;1.38;;;;;;;27.51;33.68;99161.91;5034655;28;20457;-74
2022/08/02 00:19:54;;;;;;;2.35;1.35;;;;;;;27.56;33.58;99179.19;5034823;28;20085;-74
2022/08/02 00:22:20;;;;;;;2.33;1.48;;;;;;;27.26;33.67;99123.56;5034797;28;20021;-74
2022/08/02 00:24:45;;;;;;;1.85;1.40;;;;;;;27.45;33.85;99162.25;5034648;28;20032;-75
2022/08/02 00:27:11;;;;;;;2.47;1.65;;;;;;;27.45;33.79;99170.38;5034556;28;20084;-74
2022/08/02 00:29:36;;;;;;;2.22;1.60;;;;;;;27.21;33.88;99135.28;5034466;28;20048;-75
2022/08/02 00:32:02;;;;;;;2.55;1.58;;;;;;;27.44;33.82;99166.06;5033405;28;20013;-74
2022/08/02 00:34:27;;;;;;;3.40;1.50;;;;;;;27.45;33.94;99170.38;5034773;28;20053;-74
2022/08/02 00:36:53;;;;;;;1.95;1.65;;;;;;;27.06;34.08;99117.38;5034638;28;20021;-74
2022/08/02 00:39:18;;;;;;;2.25;1.73;;;;;;;26.98;34.04;99101.00;5033253;28;20104;-74
2022/08/02 00:41:49;;;;;;;2.22;1.55;;;;;;;27.38;34.20;99164.53;5034462;28;20514;-74
2022/08/02 00:44:16;;;;;;;2.07;1.30;;;;;;;27.10;34.23;99123.00;5034525;28;20083;-74
2022/08/02 00:46:42;;;;;;;2.85;1.50;;;;;;;27.17;34.22;99142.41;5034374;28;20268;-74
2022/08/02 00:49:07;;;;;;;1.70;1.60;;;;;;;27.39;34.22;99168.88;5034314;28;20032;-74
2022/08/02 00:51:33;;;;;;;3.60;1.80;;;;;;;27.29;34.16;99144.66;5034170;28;20022;-74
2022/08/02 00:53:58;;;;;;;2.83;2.13;;;;;;;27.07;34.08;99121.69;5034014;28;20024;-74
2022/08/02 00:56:24;;;;;;;2.28;1.90;;;;;;;27.32;34.30;99173.88;5032790;28;20481;-74
2022/08/02 00:58:49;;;;;;;1.85;1.70;;;;;;;26.84;34.49;99103.63;5033992;28;20100;-74
2022/08/02 01:01:14;;;;;;;1.70;1.60;;;;;;;26.91;34.25;99120.31;5034202;28;20505;-75
2022/08/02 01:03:40;;;;;;;2.65;1.60;;;;;;;27.26;34.25;99169.63;5031851;28;20175;-74
2022/08/02 01:06:06;;;;;;;2.10;1.60;;;;;;;26.87;34.51;99105.75;5033427;28;20083;-74
2022/08/02 01:08:31;;;;;;;1.63;1.50;;;;;;;27.25;34.69;99165.31;5033654;28;20056;-74
2022/08/02 01:10:56;;;;;;;1.50;1.40;;;;;;;26.92;34.67;99111.88;5032574;28;20030;-74
2022/08/02 01:13:22;;;;;;;1.85;1.60;;;;;;;27.09;34.74;99137.66;5032552;28;20075;-74
2022/08/02 01:15:57;;;;;;;3.45;2.17;;;;;;;26.96;34.88;99122.13;5032284;28;20017;-74
2022/08/02 01:18:29;;;;;;;3.60;1.80;;;;;;;27.20;34.81;99164.31;5033644;28;20021;-74
2022/08/02 01:21:22;;;;;;;5.50;2.13;;;;;;;27.15;34.97;99169.00;5033493;28;20021;-74
2022/08/02 01:24:09;;;;;;;2.75;1.60;;;;;;;27.11;34.95;99170.69;5033340;28;20490;-74
2022/08/02 01:26:43;;;;;;;3.17;1.80;;;;;;;27.01;35.15;99168.16;5034086;28;20111;-74
2022/08/02 01:29:15;;;;;;;1.83;1.73;;;;;;;27.00;35.27;99170.06;5033762;28;20026;-74
2022/08/02 01:32:06;;;;;;;3.03;2.22;;;;;;;26.99;35.09;99162.22;5033370;28;20418;-74
2022/08/02 01:34:45;;;;;;;2.72;2.00;;;;;;;26.65;35.32;99132.59;5033492;28;20048;-74
2022/08/02 01:37:18;;;;;;;3.25;1.63;;;;;;;26.89;35.28;99161.25;5033357;28;20025;-74
2022/08/02 01:39:45;;;;;;;2.50;1.90;;;;;;;26.89;35.22;99158.53;5033276;28;20021;-74
2022/08/02 01:42:12;;;;;;;3.65;2.42;;;;;;;26.90;35.22;99156.63;5031870;28;20030;-74
2022/08/02 01:44:41;;;;;;;3.53;2.25;;;;;;;26.67;35.34;99135.81;5033210;28;20032;-74
2022/08/02 01:47:16;;;;;;;3.42;1.88;;;;;;;26.80;35.50;99154.06;5033108;28;20072;-74
2022/08/02 01:49:45;;;;;;;2.28;1.83;;;;;;;26.87;35.38;99163.44;5032943;28;20413;-74
2022/08/02 01:52:22;;;;;;;2.58;1.92;;;;;;;26.86;35.43;99159.13;5033082;28;20112;-74
2022/08/02 01:55:00;;;;;;;3.78;1.73;;;;;;;26.84;35.56;99153.19;5031705;28;20028;-74
2022/08/02 01:57:26;;;;;;;5.70;2.00;;;;;;;26.53;35.45;99123.03;5033076;28;20021;-74
2022/08/02 01:59:59;;;;;;;2.50;1.85;;;;;;;26.79;35.57;99158.69;5033204;28;20018;-74
2022/08/02 02:02:25;;;;;;;2.67;1.95;;;;;;;26.69;35.79;99147.19;5032910;28;20017;-74
2022/08/02 02:04:52;;;;;;;2.95;1.80;;;;;;;26.62;35.80;99135.91;5032879;28;20421;-74
2022/08/02 02:07:20;;;;;;;1.58;1.48;;;;;;;26.66;36.04;99158.59;5032853;28;20029;-74
2022/08/02 02:09:47;;;;;;;2.10;1.90;;;;;;;26.43;35.82;99125.06;5032838;28;20104;-74
2022/08/02 02:12:14;;;;;;;2.05;1.80;;;;;;;26.23;35.90;99091.75;5032699;28;20486;-74
2022/08/02 02:14:42;;;;;;;5.43;2.22;;;;;;;26.49;36.11;99126.59;5032785;28;20025;-74
2022/08/02 02:17:09;;;;;;;1.70;1.60;;;;;;;26.28;35.95;99096.28;5032028;28;20045;-74
2022/08/02 02:19:36;;;;;;;4.18;2.60;;;;;;;26.18;36.21;99085.59;5032318;28;20075;-74
2022/08/02 02:22:02;;;;;;;2.92;1.83;;;;;;;26.56;36.28;99149.50;5032424;28;20537;-74
2022/08/02 02:24:27;;;;;;;3.45;2.10;;;;;;;26.51;36.11;99152.28;5032398;28;20021;-76
2022/08/02 02:26:53;;;;;;;5.13;2.40;;;;;;;26.12;36.26;99098.41;5032403;28;20021;-74
2022/08/02 02:29:27;;;;;;;2.63;2.10;;;;;;;26.19;36.41;99108.84;5032222;28;20025;-74
2022/08/02 02:31:55;;;;;;;2.33;2.00;;;;;;;26.49;36.30;99159.09;5032268;28;20075;-75
2022/08/02 02:34:34;;;;;;;3.47;2.20;;;;;;;26.05;36.52;99089.03;5032266;28;20025;-74
2022/08/02 02:37:07;;;;;;;2.78;2.30;;;;;;;26.35;36.44;99150.91;5032113;28;20025;-74
2022/08/02 02:39:33;;;;;;;4.13;2.25;;;;;;;26.36;36.49;99141.69;5031975;28;20489;-74
2022/08/02 02:42:02;;;;;;;3.10;2.35;;;;;;;26.03;36.51;99096.63;5030783;28;20393;-74
2022/08/02 02:44:29;;;;;;;2.75;1.90;;;;;;;26.38;36.54;99158.44;5031953;28;20027;-74
2022/08/02 02:46:56;;;;;;;2.40;2.15;;;;;;;26.26;36.42;99144.50;5032076;28;20083;-74
2022/08/02 02:49:22;;;;;;;4.13;2.05;;;;;;;26.27;36.63;99156.94;5031855;28;20029;-74
2022/08/02 02:51:49;;;;;;;3.53;2.00;;;;;;;26.07;36.86;99133.63;5031783;28;20033;-74
2022/08/02 02:54:16;;;;;;;2.90;2.60;;;;;;;26.02;36.58;99138.31;5031620;28;20029;-74
2022/08/02 02:56:42;;;;;;;3.10;2.58;;;;;;;25.82;36.73;99123.91;5030579;28;20026;-74
2022/08/02 02:59:09;;;;;;;3.38;2.80;;;;;;;25.77;36.66;99113.13;5031833;28;20026;-74
2022/08/02 03:01:34;;;;;;;3.13;2.83;;;;;;;25.79;36.60;99121.75;5031786;28;20029;-74
2022/08/02 03:04:03;;;;;;;3.60;2.80;;;;;;;25.63;36.76;99107.59;5031653;28;20031;-74
2022/08/02 03:06:29;;;;;;;2.95;2.50;;;;;;;25.89;37.17;99162.22;5031888;28;20018;-74
2022/08/02 03:08:55;;;;;;;2.92;2.60;;;;;;;25.82;37.25;99178.00;5031564;28;20517;-74
2022/08/02 03:11:22;;;;;;;4.65;2.47;;;;;;;25.82;36.86;99174.47;5030495;28;20482;-74
2022/08/02 03:13:48;;;;;;;3.20;2.53;;;;;;;25.69;37.43;99169.75;5031679;28;20155;-74
2022/08/02 03:16:14;;;;;;;2.42;2.20;;;;;;;25.01;37.39;99103.03;5030216;28;20152;-74
2022/08/02 03:18:42;;;;;;;4.10;2.65;;;;;;;25.48;37.68;99172.63;5031238;28;20411;-74
2022/08/02 03:21:13;;;;;;;5.07;2.67;;;;;;;25.51;37.80;99172.06;5030195;28;20028;-74
2022/08/02 03:23:40;;;;;;;2.67;2.45;;;;;;;25.28;37.61;99137.69;5031609;28;20025;-74
2022/08/02 03:26:07;;;;;;;5.97;2.65;;;;;;;25.59;37.38;99176.03;5031483;28;20216;-74
2022/08/02 03:28:33;;;;;;;5.90;3.30;;;;;;;25.59;37.63;99176.84;5030645;28;20418;-74
2022/08/02 03:31:00;;;;;;;5.07;2.67;;;;;;;25.21;37.90;99129.88;5031492;28;20105;-74
2022/08/02 03:33:26;;;;;;;4.35;2.50;;;;;;;25.14;37.73;99112.38;5031309;28;20030;-74
2022/08/02 03:35:55;;;;;;;5.75;2.50;;;;;;;25.59;37.69;99176.03;5031320;28;20494;-74
2022/08/02 03:38:22;;;;;;;3.88;2.30;;;;;;;25.58;38.08;99180.63;5031359;28;20017;-74
2022/08/02 03:40:49;;;;;;;3.78;2.40;;;;;;;25.59;38.15;99179.53;5031469;28;20027;-74
2022/08/02 03:43:16;;;;;;;4.18;2.47;;;;;;;25.56;38.03;99188.22;5031393;28;20406;-74
2022/08/02 03:45:46;;;;;;;3.58;2.47;;;;;;;25.58;38.22;99186.03;5031332;28;20413;-74
2022/08/02 03:48:13;;;;;;;3.95;2.60;;;;;;;25.57;38.56;99203.34;5031042;28;20099;-74
2022/08/02 03:50:39;;;;;;;5.05;2.65;;;;;;;25.29;38.59;99164.41;5031110;28;20021;-74
2022/08/02 03:53:06;;;;;;;6.78;2.53;;;;;;;25.54;38.38;99195.81;5030005;28;20513;-74
2022/08/02 03:55:33;;;;;;;3.85;2.70;;;;;;;25.51;38.39;99193.69;5031070;28;20457;-74
2022/08/02 03:57:59;;;;;;;6.40;2.78;;;;;;;25.23;38.30;99140.41;5031069;28;20044;-75
2022/08/02 04:00:25;;;;;;;7.15;2.67;;;;;;;25.26;38.35;99150.63;5029828;28;20486;-74
2022/08/02 04:02:50;;;;;;;3.88;2.58;;;;;;;25.36;38.19;99171.38;5031009;28;20487;-74
2022/08/02 04:05:17;;;;;;;6.93;2.78;;;;;;;25.56;38.44;99203.63;5031090;28;20076;-74
2022/08/02 04:07:42;;;;;;;6.00;3.20;;;;;;;25.43;38.31;99188.09;5030998;28;20029;-74
2022/08/02 04:10:09;;;;;;;7.05;2.95;;;;;;;25.47;38.65;99194.53;5031149;28;20032;-75
2022/08/02 04:12:34;;;;;;;3.60;2.42;;;;;;;25.24;38.24;99161.72;5030851;28;20036;-74
2022/08/02 04:15:04;;;;;;;6.53;2.90;;;;;;;25.38;38.41;99178.13;5030926;28;20025;-74
2022/08/02 04:17:47;;;;;;;5.40;3.00;;;;;;;25.59;38.10;99214.69;5030755;28;20599;-74
2022/08/02 04:20:18;;;;;;;5.82;2.70;;;;;;;25.45;38.55;99194.81;5030855;28;20026;-75
2022/08/02 04:22:43;;;;;;;;;;;;;;;25.41;38.79;99218.09;5031195;28;20096;-74
2022/08/02 04:25:10;;;;;;;3.20;1.98;;;;;;;25.45;38.17;99218.34;5030825;28;20047;-74
2022/08/02 04:27:37;;;;;;;3.55;2.40;;;;;;;25.28;38.28;99175.50;5031010;28;20021;-74
2022/08/02 04:30:04;;;;;;;5.22;2.50;;;;;;;25.66;38.45;99222.50;5030889;28;20021;-74
2022/08/02 04:32:31;;;;;;;4.15;2.58;;;;;;;25.63;38.40;99212.22;5029610;28;20023;-74
2022/08/02 04:34:57;;;;;;;5.25;2.60;;;;;;;25.40;38.13;99180.53;5031060;28;20079;-74
2022/08/02 04:37:22;;;;;;;4.43;2.80;;;;;;;25.72;38.41;99220.56;5031087;28;20025;-74
2022/08/02 04:39:48;;;;;;;2.70;2.40;;;;;;;25.55;38.21;99177.69;5033490;28;20096;-74
2022/08/02 04:42:25;;;;;;;4.93;2.78;;;;;;;25.58;38.52;99187.94;5034333;28;20413;-74
2022/08/02 04:44:51;;;;;;;5.10;2.85;;;;;;;25.67;38.35;99210.59;5032977;28;20021;-74
2022/08/02 04:47:19;;;;;;;4.78;2.72;;;;;;;25.49;38.27;99185.03;5034343;28;20032;-74
2022/08/02 04:49:45;;;;;;;3.83;2.40;;;;;;;25.69;38.16;99207.59;5034188;28;20029;-74
2022/08/02 04:52:11;;;;;;;3.97;2.35;;;;;;;25.75;38.45;99207.28;5034292;28;20036;-74
2022/08/02 04:54:37;;;;;;;4.63;2.60;;;;;;;25.07;38.15;99107.31;5034132;28;20025;-74
2022/08/02 04:57:53;;;;;;;4.15;2.63;;;;;;;25.55;38.04;99173.09;5034253;28;20022;-74
2022/08/02 04:59:48;;;;;;;2.92;2.28;;;;;;;25.89;38.20;99235.25;5034016;28;20093;-74
2022/08/02 05:02:13;;;;;;;3.08;1.95;;;;;;;25.88;38.03;99220.13;5034014;28;20445;-74
2022/08/02 05:04:38;;;;;;;4.00;2.40;;;;;;;25.62;38.27;99187.09;5034010;28;20064;-75
2022/08/02 05:07:04;;;;;;;4.95;2.65;;;;;;;25.88;38.13;99220.13;5033880;28;20026;-74
2022/08/02 05:09:29;;;;;;;4.18;2.50;;;;;;;25.93;38.29;99211.16;5033860;28;20017;-74
2022/08/02 05:11:54;;;;;;;3.33;2.40;;;;;;;25.61;38.26;99163.84;5033811;28;20025;-74
2022/08/02 05:14:20;;;;;;;3.67;2.60;;;;;;;25.72;38.21;99183.50;5032449;28;20100;-74
2022/08/02 05:16:45;;;;;;;4.18;2.50;;;;;;;26.15;38.10;99224.19;5033628;28;20426;-74
2022/08/02 05:19:11;;;;;;;3.15;2.20;;;;;;;26.11;37.94;99206.91;5033698;28;20022;-74
2022/08/02 05:21:36;;;;;;;7.97;2.90;;;;;;;26.10;37.68;99203.41;5033806;28;20022;-74
2022/08/02 05:24:02;;;;;;;5.18;2.15;;;;;;;26.31;37.38;99222.09;5033718;28;20028;-74
2022/08/02 05:26:27;;;;;;;2.85;1.92;;;;;;;26.29;37.32;99225.91;5033575;28;20155;-74
2022/08/02 05:28:52;;;;;;;3.70;2.17;;;;;;;26.35;37.01;99217.75;5033603;28;20104;-74
2022/08/02 05:31:18;;;;;;;8.25;3.33;;;;;;;26.11;37.24;99169.84;5032033;28;20030;-75
2022/08/02 05:33:44;;;;;;;3.42;1.90;;;;;;;26.25;36.82;99189.69;5032126;28;20018;-74
2022/08/02 05:36:09;;;;;;;3.10;2.13;;;;;;;26.33;37.06;99201.81;5033493;28;20037;-74
2022/08/02 05:38:35;;;;;;;3.00;2.17;;;;;;;26.03;36.83;99162.38;5033361;28;20061;-74
2022/08/02 05:41:00;;;;;;;2.13;1.65;;;;;;;26.13;36.92;99185.78;5033153;28;20074;-74
2022/08/02 05:43:26;;;;;;;2.55;1.80;;;;;;;25.06;37.08;99008.44;5033201;28;20025;-74
2022/08/02 05:45:52;;;;;;;2.45;1.50;;;;;;;26.47;36.99;99235.19;5033174;28;20017;-75
2022/08/02 05:48:17;;;;;;;1.90;1.70;;;;;;;26.49;36.82;99229.50;5033070;28;20476;-74
2022/08/02 05:50:47;;;;;;;2.78;1.88;;;;;;;26.48;36.89;99223.28;5032484;28;20128;-75
2022/08/02 05:53:15;;;;;;;3.28;2.38;;;;;;;26.66;36.79;99229.81;5033257;28;20568;-75
2022/08/02 05:55:55;;;;;;;3.88;1.90;;;;;;;26.68;36.62;99230.31;5032858;28;20026;-74
2022/08/02 05:58:33;;;;;;;2.25;1.85;;;;;;;26.72;36.37;99239.47;5032568;28;20021;-75
2022/08/02 06:01:02;;;;;;;3.97;1.98;;;;;;;26.71;36.07;99226.22;5033268;28;20409;-74
2022/08/02 06:03:38;;;;;;;1.63;1.50;;;;;;;26.78;35.94;99243.75;5032657;28;20417;-74
2022/08/02 06:06:09;;;;;;;2.38;1.50;;;;;;;26.82;36.11;99250.19;5032822;28;20120;-74
2022/08/02 06:08:46;;;;;;;4.22;1.48;;;;;;;26.91;35.75;99240.31;5032486;28;20091;-74
2022/08/02 06:11:14;;;;;;;1.83;1.40;;;;;;;26.98;35.70;99248.13;5032599;28;20039;-75
2022/08/02 06:13:44;;;;;;;2.58;1.30;;;;;;;27.00;35.43;99254.06;5032571;28;20025;-74
2022/08/02 06:16:10;;;;;;;4.10;1.70;;;;;;;26.97;35.38;99270.06;5032554;28;20061;-75
2022/08/02 06:18:36;;;;;;;6.50;2.13;;;;;;;26.77;35.38;99208.84;5030740;28;20037;-75
2022/08/02 06:21:04;;;;;;;2.38;1.60;;;;;;;26.93;35.14;99229.19;5030624;28;20403;-77
2022/08/02 06:23:31;;;;;;;1.52;1.35;;;;;;;27.17;35.20;99262.47;5032101;28;20032;-77
2022/08/02 06:25:58;;;;;;;3.42;1.63;;;;;;;27.23;35.09;99261.28;5030993;28;20026;-76
2022/08/02 06:28:25;;;;;;;2.33;1.50;;;;;;;26.95;35.19;99229.69;5030930;28;20031;-76
2022/08/02 06:30:50;;;;;;;2.50;1.80;;;;;;;27.11;35.03;99236.53;5032041;28;20029;-77
2022/08/02 06:33:16;;;;;;;2.67;2.20;;;;;;;27.17;35.10;99239.97;5032235;28;20025;-77
2022/08/02 06:36:05;;;;;;;4.07;2.60;;;;;;;27.36;34.68;99265.16;5030910;28;20025;-77
2022/08/02 06:38:38;;;;;;;3.67;2.30;;;;;;;27.43;34.78;99260.16;5032307;28;20109;-76
2022/08/02 06:41:07;;;;;;;3.42;2.25;;;;;;;27.09;34.55;99206.22;5030324;28;20017;-75
2022/08/02 06:43:48;;;;;;;2.95;2.35;;;;;;;27.24;34.76;99216.00;5030498;28;20490;-77
2022/08/02 06:46:14;;;;;;;3.78;2.33;;;;;;;27.60;34.53;99270.50;5031406;28;20021;-76
2022/08/02 06:48:40;;;;;;;3.28;2.70;;;;;;;27.29;34.20;99215.13;5030848;28;20477;-76
2022/08/02 06:51:05;;;;;;;2.97;2.70;;;;;;;27.72;34.30;99270.88;5030272;28;20025;-76
2022/08/02 06:53:31;;;;;;;2.83;2.30;;;;;;;27.54;34.14;99239.13;5030176;28;20018;-77
2022/08/02 06:55:57;;;;;;;2.35;2.08;;;;;;;27.85;34.01;99272.00;5031681;28;20033;-77
2022/08/02 06:58:22;;;;;;;2.60;2.40;;;;;;;27.85;34.26;99272.00;5031398;28;20107;-76
2022/08/02 07:00:48;;;;;;;2.65;1.80;;;;;;;27.55;33.89;99224.47;5030993;28;20069;-76
2022/08/02 07:03:14;;;;;;;3.25;2.53;;;;;;;27.89;33.70;99274.91;5030665;28;20410;-76
2022/08/02 07:05:40;;;;;;;2.38;1.70;;;;;;;27.97;33.79;99271.53;5031296;28;20417;-76
2022/08/02 07:08:06;;;;;;;2.58;1.90;;;;;;;28.05;33.74;99262.69;5029008;28;20037;-76
2022/08/02 07:10:32;;;;;;;1.40;1.30;;;;;;;27.74;33.52;99217.13;5030972;28;20030;-76
2022/08/02 07:12:57;;;;;;;1.70;1.60;;;;;;;27.98;33.74;99240.56;5031554;28;20387;-76
2022/08/02 07:15:23;;;;;;;1.60;1.48;;;;;;;28.20;33.46;99264.31;5031501;28;20017;-76
2022/08/02 07:17:48;;;;;;;2.22;1.60;;;;;;;28.20;33.40;99265.09;5031067;28;20078;-76
2022/08/02 07:20:14;;;;;;;2.25;1.67;;;;;;;27.91;33.69;99213.81;5029876;28;20032;-77
2022/08/02 07:22:40;;;;;;;1.45;1.30;;;;;;;27.92;33.43;99222.75;5029097;28;20028;-77
2022/08/02 07:25:06;;;;;;;1.90;1.70;;;;;;;28.29;33.49;99257.94;5029740;28;20032;-77
2022/08/02 07:27:31;;;;;;;2.25;1.35;;;;;;;28.15;33.18;99229.91;5030914;28;20059;-77
2022/08/02 07:29:57;;;;;;;3.65;1.20;;;;;;;28.08;33.27;99221.38;5029888;28;20028;-77
2022/08/02 07:32:24;;;;;;;1.30;1.08;;;;;;;28.38;33.16;99252.59;5030946;28;20022;-77
2022/08/02 07:34:51;;;;;;;1.00;1.00;;;;;;;28.45;33.18;99248.38;5029693;28;20533;-77
2022/08/02 07:37:17;;;;;;;1.75;1.40;;;;;;;28.32;33.03;99205.75;5016280;28;20040;-77
2022/08/02 07:39:42;;;;;;;2.70;1.50;;;;;;;28.63;32.87;99241.22;5028922;28;20017;-77
2022/08/02 07:42:08;;;;;;;1.73;1.23;;;;;;;28.52;32.72;99207.22;5028249;28;20029;-77
2022/08/02 07:44:36;;;;;;;2.72;1.17;;;;;;;28.79;32.51;99247.91;5028857;28;20480;-76
2022/08/02 07:47:01;;;;;;;1.90;1.80;;;;;;;28.83;32.37;99260.91;5028125;28;20025;-77
2022/08/02 07:49:27;;;;;;;1.70;1.45;;;;;;;28.92;32.36;99249.03;5028663;28;20025;-77
2022/08/02 07:51:53;;;;;;;2.42;1.73;;;;;;;28.72;32.33;99212.22;5027342;28;20482;-77
2022/08/02 07:54:19;;;;;;;2.58;1.45;;;;;;;29.05;32.39;99250.94;5030191;28;20025;-77
2022/08/02 07:56:44;;;;;;;2.10;1.83;;;;;;;28.84;32.04;99211.72;5030611;28;20443;-77
2022/08/02 07:59:10;;;;;;;1.88;1.70;;;;;;;29.15;31.95;99249.09;5030348;28;20031;-77
2022/08/02 08:01:36;;;;;;;2.45;1.52;;;;;;;29.02;31.76;99218.94;5029157;28;20033;-77
2022/08/02 08:04:02;;;;;;;3.40;1.30;;;;;;;29.19;31.44;99229.13;5029242;28;20466;-77
2022/08/02 08:06:28;;;;;;;2.63;2.40;;;;;;;29.14;31.54;99217.56;5028349;28;20108;-77
2022/08/02 08:08:54;;;;;;;3.08;1.50;;;;;;;29.40;31.57;99240.31;5030521;28;20028;-77
2022/08/02 08:11:19;;;;;;;3.30;1.50;;;;;;;29.45;31.02;99245.66;5030174;28;20017;-77
2022/08/02 08:13:45;;;;;;;8.50;1.50;;;;;;;29.48;31.01;99253.22;5030024;28;20505;-77
2022/08/02 08:16:10;;;;;;;1.40;0.88;;;;;;;29.23;31.34;99210.28;5033710;28;20021;-77
2022/08/02 08:18:36;;;;;;;2.63;1.60;;;;;;;29.58;30.82;99261.13;5034402;28;20084;-77
2022/08/02 08:21:02;;;;;;;3.28;1.85;;;;;;;29.74;30.81;99245.22;5031958;28;20482;-77
2022/08/02 08:23:27;;;;;;;5.38;2.10;;;;;;;29.79;31.18;99245.09;5034037;28;20120;-77
2022/08/02 08:25:53;;;;;;;2.28;1.42;;;;;;;30.06;30.86;99244.13;5034041;28;20113;-77
2022/08/02 08:28:18;;;;;;;1.35;1.25;;;;;;;29.97;30.53;99211.41;5033994;28;20083;-77
2022/08/02 08:30:43;;;;;;;1.70;1.45;;;;;;;30.12;30.26;99210.22;5032631;28;20421;-77
2022/08/02 08:33:09;;;;;;;1.50;1.40;;;;;;;30.44;30.32;99251.81;5034275;28;20478;-77
2022/08/02 08:35:34;;;;;;;1.90;1.10;;;;;;;30.24;30.16;99204.97;5033587;28;20524;-77
2022/08/02 08:38:00;;;;;;;1.08;0.98;;;;;;;30.51;30.05;99252.97;5034288;28;20091;-77
2022/08/02 08:40:26;;;;;;;2.67;1.58;;;;;;;30.46;29.43;99235.94;5032929;28;20096;-77
2022/08/02 08:42:51;;;;;;;3.22;2.83;;;;;;;30.70;29.84;99244.53;5034031;28;20494;-77
2022/08/02 08:45:17;;;;;;;16.67;1.50;;;;;;;30.37;29.28;99192.34;5032795;28;20031;-76
2022/08/02 08:47:42;;;;;;;3.97;3.55;;;;;;;30.35;29.32;99173.59;5034208;28;20478;-77
2022/08/02 08:50:10;;;;;;;3.60;2.92;;;;;;;30.64;29.18;99199.50;5032056;28;20034;-77
2022/08/02 08:52:42;;;;;;;1.10;1.00;;;;;;;31.03;28.78;99236.72;5032190;28;20075;-77
2022/08/02 08:55:10;;;;;;;5.90;1.70;;;;;;;31.03;28.70;99220.34;5031415;28;20025;-77
2022/08/02 08:57:40;;;;;;;2.00;1.77;;;;;;;31.14;28.58;99229.81;5028507;28;20033;-77
2022/08/02 09:00:07;;;;;;;3.05;1.60;;;;;;;31.32;28.79;99238.84;5032085;28;20021;-77
2022/08/02 09:02:36;;;;;;;1.83;1.33;;;;;;;31.33;28.33;99207.72;5032094;28;20060;-77
2022/08/02 09:05:02;;;;;;;2.28;1.60;;;;;;;31.59;28.41;99226.75;5031263;28;20395;-78
2022/08/02 09:07:28;;;;;;;1.75;1.65;;;;;;;31.74;28.17;99236.38;5032265;28;20099;-78
2022/08/02 09:09:53;;;;;;;1.88;1.38;;;;;;;31.50;28.24;99210.41;5031453;28;20075;-77
2022/08/02 09:12:23;;;;;;;2.05;1.08;;;;;;;31.57;28.25;99248.13;5032788;28;20489;-77
2022/08/02 09:14:48;;;;;;;1.40;1.30;;;;;;;31.80;28.38;99224.16;5033548;28;20022;-77
2022/08/02 09:17:14;;;;;;;2.35;1.38;;;;;;;31.98;27.92;99216.75;5032621;28;20044;-77
2022/08/02 09:19:39;;;;;;;1.90;1.23;;;;;;;31.96;27.77;99165.19;5033517;28;20022;-77
2022/08/02 09:22:08;;;;;;;2.80;2.58;;;;;;;32.50;26.92;99217.31;5033437;28;20056;-78
2022/08/02 09:24:44;;;;;;;1.60;1.05;;;;;;;32.41;26.56;99208.34;5032151;28;20022;-77
2022/08/02 09:27:20;;;;;;;2.20;2.00;;;;;;;32.39;26.76;99189.56;5029767;28;20025;-77
2022/08/02 09:29:52;;;;;;;1.50;1.40;;;;;;;32.73;26.42;99207.69;5032355;28;20025;-77
2022/08/02 09:32:18;;;;;;;2.22;1.67;;;;;;;32.70;26.27;99161.88;5026523;28;20112;-77
2022/08/02 09:34:52;;;;;;;1.42;1.02;;;;;;;33.41;25.62;99218.41;5033277;28;20029;-77
2022/08/02 09:37:27;;;;;;;1.70;1.00;;;;;;;33.52;25.50;99191.44;5033480;28;20025;-77
2022/08/02 09:39:53;;;;;;;2.53;1.42;;;;;;;33.79;25.32;99213.50;5032589;28;20013;-77
2022/08/02 09:42:19;;;;;;;3.33;1.70;;;;;;;33.99;25.50;99216.53;5032970;28;20026;-77
2022/08/02 09:45:01;;;;;;;3.03;1.70;;;;;;;33.53;25.96;99182.88;5031593;28;20036;-77
2022/08/02 09:47:27;;;;;;;7.80;6.22;;;;;;;33.38;26.17;99205.41;5031308;28;20029;-77
2022/08/02 09:49:55;;;;;;;4.78;4.10;;;;;;;33.18;26.19;99212.47;5031495;28;20065;-77
2022/08/02 09:52:28;;;;;;;2.28;2.05;;;;;;;32.98;26.00;99210.56;5032624;28;20033;-77
2022/08/02 09:54:54;;;;;;;4.32;2.42;;;;;;;33.05;26.25;99216.31;5032215;28;20030;-77
2022/08/02 09:57:27;;;;;;;5.85;5.22;;;;;;;33.44;26.69;99210.34;5030926;28;20045;-77
2022/08/02 09:59:57;;;;;;;3.40;1.92;;;;;;;33.95;25.24;99216.41;5032949;28;20546;-77
2022/08/02 10:02:23;;;;;;;3.15;2.58;;;;;;;34.36;24.91;99206.41;5031401;28;20032;-77
2022/08/02 10:04:49;;;;;;;2.33;2.13;;;;;;;34.68;24.29;99212.88;5030949;28;20025;-77
2022/08/02 10:07:16;;;;;;;2.35;1.73;;;;;;;34.74;24.52;99215.03;5030407;28;20087;-77
2022/08/02 10:09:44;;;;;;;2.90;2.33;;;;;;;34.02;24.89;99163.78;5032231;28;20418;-77
2022/08/02 10:12:10;;;;;;;3.47;1.60;;;;;;;33.96;24.88;99196.09;5031868;28;20029;-78
2022/08/02 10:14:36;;;;;;;4.38;3.72;;;;;;;34.22;24.71;99205.94;5031991;28;20127;-78
2022/08/02 10:17:03;;;;;;;5.40;2.45;;;;;;;34.35;24.28;99161.75;5031203;28;20085;-78
2022/08/02 10:19:29;;;;;;;1.52;1.42;;;;;;;35.04;23.46;99209.28;5032398;28;20032;-77
2022/08/02 10:22:09;;;;;;;2.42;1.60;;;;;;;34.97;23.17;99162.44;5030516;28;20029;-77
2022/08/02 10:24:38;;;;;;;2.08;1.95;;;;;;;35.50;22.98;99194.09;5032189;28;20030;-77
2022/08/02 10:27:05;;;;;;;2.67;2.33;;;;;;;35.63;22.35;99183.84;5031398;28;20065;-77
2022/08/02 10:29:38;;;;;;;4.18;2.40;;;;;;;35.63;22.43;99156.38;5029919;28;20383;-77
2022/08/02 10:32:09;;;;;;;4.03;3.63;;;;;;;35.46;22.18;99101.81;5024217;28;20057;-77
2022/08/02 10:34:39;;;;;;;7.20;2.28;;;;;;;36.22;21.73;99196.72;5029640;28;20091;-77
2022/08/02 10:37:07;;;;;;;4.80;1.67;;;;;;;36.30;21.91;99195.75;5029288;28;20025;-77
2022/08/02 10:39:44;;;;;;;1.52;1.42;;;;;;;36.36;20.98;99180.59;5029783;28;20032;-78
2022/08/02 10:42:11;;;;;;;4.22;2.70;;;;;;;35.23;21.90;99041.22;5029199;28;20083;-78
2022/08/02 10:44:37;;;;;;;2.33;1.63;;;;;;;36.48;21.63;99191.50;5031964;28;20725;-78
2022/08/02 10:47:25;;;;;;;4.20;2.00;;;;;;;36.32;21.47;99189.91;5031655;28;20025;-78
2022/08/02 10:49:58;;;;;;;2.03;1.58;;;;;;;35.80;22.16;99190.97;5029441;28;20034;-78
2022/08/02 10:52:26;;;;;;;3.35;1.63;;;;;;;35.24;22.90;99177.28;5031310;28;20044;-78
2022/08/02 10:55:11;;;;;;;1.65;1.50;;;;;;;34.70;23.84;99192.19;5030893;28;20482;-78
2022/08/02 10:57:36;;;;;;;2.08;1.60;;;;;;;34.57;23.65;99196.09;5015101;28;20100;-77
2022/08/02 11:00:24;;;;;;;4.63;2.58;;;;;;;34.12;24.46;99171.56;5017150;28;20042;-77
2022/08/02 11:02:50;;;;;;;2.30;2.10;;;;;;;34.39;24.28;99189.28;5024361;28;20549;-77
2022/08/02 11:05:31;;;;;;;4.30;2.35;;;;;;;34.62;23.59;99143.75;5029509;28;20053;-77
2022/08/02 11:07:57;;;;;;;2.30;2.10;;;;;;;35.46;22.73;99178.69;5031061;28;20029;-78
2022/08/02 11:10:25;;;;;;;3.38;2.72;;;;;;;35.96;22.63;99184.34;5031207;28;20464;-78
2022/08/02 11:13:15;;;;;;;3.45;1.73;;;;;;;36.29;21.93;99185.91;5030631;28;20213;-78
2022/08/02 11:16:00;;;;;;;1.83;1.73;;;;;;;36.53;21.31;99177.47;5029877;28;20402;-78
2022/08/02 11:18:50;;;;;;;1.80;1.40;;;;;;;36.75;21.11;99180.66;5031023;28;20041;-78
2022/08/02 11:21:40;;;;;;;3.53;1.87;;;;;;;36.81;20.83;99140.72;5030734;28;20036;-78
2022/08/02 11:24:28;;;;;;;2.20;1.67;;;;;;;37.43;20.97;99166.34;5029706;28;20018;-78
2022/08/02 11:26:54;;;;;;;1.50;1.40;;;;;;;36.90;21.02;99179.81;5030329;28;20053;-78
2022/08/02 11:29:20;;;;;;;2.60;1.67;;;;;;;36.43;21.80;99172.53;5030320;28;20026;-78
2022/08/02 11:31:46;;;;;;;3.63;2.55;;;;;;;36.02;22.26;99165.63;5030165;28;20031;-77
2022/08/02 11:34:12;;;;;;;3.83;2.55;;;;;;;35.52;22.90;99145.13;5030789;28;20490;-77
2022/08/02 11:36:48;;;;;;;2.25;1.50;;;;;;;35.20;22.66;99168.16;5030871;28;20082;-77
2022/08/02 11:39:16;;;;;;;1.35;1.25;;;;;;;34.63;23.14;99148.09;5030734;28;20087;-77